Time;durP1;ratioP1;P1;durP2;ratioP2;P2;SDS_P1;SDS_P2;PMS_P1;PMS_P2;Temp;Humidity;BMP_temperature;BMP_pressure;BME280_temperature;BME280_humidity;BME280_pressure;Samples;Min_cycle;Max_cycle;Signal;HPM_P1;HPM_P2
2020/12/18 00:00:50;;;;;;;19.28;11.68;;;7.20;99.90;;;12.15;90.52;102055.44;1689614;75;24465;-83
2020/12/18 00:03:06;;;;;;;12.95;9.42;;;7.20;99.90;;;12.17;90.48;102052.45;1700286;75;24555;-83
2020/12/18 00:05:22;;;;;;;16.61;11.10;;;7.20;99.90;;;11.99;90.97;102058.97;1699891;74;24459;-82
2020/12/18 00:07:39;;;;;;;19.57;11.62;;;7.20;99.90;;;12.04;91.61;102049.53;1691306;75;24486;-82
2020/12/18 00:09:56;;;;;;;15.67;11.19;;;7.20;99.90;;;12.07;91.10;102048.30;1698511;75;24484;-81
2020/12/18 00:12:13;;;;;;;17.92;11.52;;;7.20;99.90;;;12.00;91.18;102055.51;1677434;75;24596;-80
2020/12/18 00:14:30;;;;;;;15.87;9.42;;;7.20;99.90;;;12.05;91.14;102043.45;1666791;76;24442;-81
2020/12/18 00:16:47;;;;;;;12.70;9.38;;;7.20;99.90;;;11.96;91.13;102046.75;1669508;76;24486;-82
2020/12/18 00:19:04;;;;;;;16.12;9.47;;;7.10;99.90;;;11.92;91.45;102055.33;1671850;75;24511;-83
2020/12/18 00:21:22;;;;;;;16.57;9.31;;;7.20;99.90;;;11.96;91.73;102045.85;1667352;75;24447;-82
2020/12/18 00:23:38;;;;;;;19.12;11.19;;;7.20;99.90;;;11.84;92.02;102046.84;1668800;76;24579;-83
2020/12/18 00:25:55;;;;;;;12.71;7.80;;;7.20;99.90;;;11.89;93.13;102050.04;1679206;76;24435;-83
2020/12/18 00:28:11;;;;;;;13.18;9.20;;;7.20;99.90;;;11.68;93.09;102051.25;1663927;76;24517;-83
2020/12/18 00:30:27;;;;;;;15.70;10.32;;;7.20;99.90;;;11.97;92.83;102051.52;1653589;76;24544;-81
2020/12/18 00:32:45;;;;;;;13.74;9.10;;;7.20;99.90;;;11.88;92.48;102043.06;1671250;76;24526;-82
2020/12/18 00:35:01;;;;;;;11.63;9.50;;;7.20;99.90;;;11.78;92.63;102037.16;1680694;75;24502;-82
2020/12/18 00:37:17;;;;;;;16.10;9.97;;;7.20;99.90;;;11.96;93.28;102035.00;1667398;76;24604;-81
2020/12/18 00:39:34;;;;;;;9.54;5.85;;;7.20;99.90;;;11.89;92.40;102035.69;1663493;76;24485;-82
2020/12/18 00:41:55;;;;;;;14.07;8.91;;;7.10;99.90;;;11.61;93.48;102036.23;1668568;76;24455;-80
2020/12/18 00:44:13;;;;;;;11.28;7.49;;;7.10;99.90;;;11.78;92.97;102030.63;1671358;75;24498;-81
2020/12/18 00:46:29;;;;;;;11.68;8.85;;;7.10;99.90;;;11.75;93.03;102033.16;1671750;76;24424;-82
2020/12/18 00:48:45;;;;;;;14.99;8.52;;;7.10;99.90;;;11.79;92.80;102022.39;1664787;75;24955;-81
2020/12/18 00:51:01;;;;;;;11.59;7.68;;;7.10;99.90;;;11.92;92.42;102024.01;1667465;76;24957;-82
2020/12/18 00:53:18;;;;;;;12.48;7.81;;;7.10;99.90;;;11.71;93.36;102031.75;1675164;76;24432;-82
2020/12/18 00:55:34;;;;;;;18.19;9.62;;;7.10;99.90;;;11.95;92.84;102025.38;1668540;76;24447;-83
2020/12/18 00:57:51;;;;;;;13.69;9.43;;;7.10;99.90;;;12.03;92.75;102032.97;1663148;76;24433;-82
2020/12/18 01:00:09;;;;;;;13.93;8.37;;;7.10;99.90;;;11.83;92.10;102032.93;1677767;75;24459;-81
2020/12/18 01:02:27;;;;;;;14.27;8.34;;;7.00;99.90;;;11.78;92.97;102033.65;1664835;76;24409;-81
2020/12/18 01:04:43;;;;;;;12.47;8.56;;;7.00;99.90;;;11.82;92.40;102040.73;1666995;76;24431;-82
2020/12/18 01:07:01;;;;;;;10.60;7.17;;;7.00;99.90;;;11.75;92.85;102019.22;1671148;76;24393;-82
2020/12/18 01:09:17;;;;;;;15.80;8.66;;;7.00;99.90;;;11.62;93.11;102030.16;1675515;75;24462;-81
2020/12/18 01:11:39;;;;;;;13.03;8.55;;;7.00;99.90;;;11.71;93.13;102039.58;1681733;75;24526;-82
2020/12/18 01:13:57;;;;;;;15.98;8.31;;;6.90;99.90;;;11.71;92.97;102039.13;1687304;75;24829;-82
2020/12/18 01:16:15;;;;;;;7.75;4.71;;;6.90;99.90;;;11.68;93.25;102035.15;1689952;75;24573;-81
2020/12/18 01:18:36;;;;;;;10.14;6.49;;;6.90;99.90;;;11.14;94.57;102035.42;1692571;75;24494;-80
2020/12/18 01:20:52;;;;;;;11.97;6.05;;;6.90;99.90;;;11.14;94.91;102035.42;1691238;75;24474;-81
2020/12/18 01:23:09;;;;;;;12.74;7.77;;;6.90;99.90;;;11.02;96.03;102031.19;1707697;75;24456;-81
2020/12/18 01:25:33;;;;;;;11.05;6.45;;;6.90;99.90;;;11.04;96.36;102038.60;1697114;75;24462;-80
2020/12/18 01:27:49;;;;;;;12.97;8.33;;;6.90;99.90;;;10.93;95.59;102034.41;1698941;75;24531;-82
2020/12/18 01:30:07;;;;;;;14.22;7.54;;;6.90;99.90;;;11.20;94.93;102030.36;1697191;75;24883;-81
2020/12/18 01:32:27;;;;;;;11.73;8.31;;;6.80;99.90;;;11.20;95.00;102035.58;1690725;75;24375;-81
2020/12/18 01:34:44;;;;;;;12.52;7.78;;;6.80;99.90;;;11.41;94.62;102049.19;1704275;75;24429;-82
2020/12/18 01:37:03;;;;;;;9.34;6.54;;;6.80;99.90;;;11.60;94.02;102041.00;1686384;74;24505;-81
2020/12/18 01:39:20;;;;;;;13.57;5.88;;;6.80;99.90;;;11.45;93.72;102037.58;1701263;75;24383;-81
2020/12/18 01:41:38;;;;;;;10.93;7.58;;;6.80;99.90;;;11.44;94.18;102046.25;1695942;74;24442;-81
2020/12/18 01:43:56;;;;;;;12.23;7.66;;;6.80;99.90;;;11.54;93.80;102041.71;1692705;74;24736;-81
2020/12/18 01:46:15;;;;;;;15.09;7.74;;;6.90;99.90;;;11.45;94.67;102041.89;1704414;74;24552;-81
2020/12/18 01:48:35;;;;;;;12.63;8.17;;;6.90;99.90;;;11.37;94.56;102044.31;1699232;75;24443;-80
2020/12/18 01:50:53;;;;;;;7.90;4.63;;;6.90;99.90;;;11.54;94.47;102037.80;1691702;75;24451;-78
2020/12/18 01:53:13;;;;;;;13.54;8.83;;;6.80;99.90;;;10.93;95.84;102043.94;1692873;75;24442;-82
2020/12/18 01:55:37;;;;;;;12.52;6.80;;;6.90;99.90;;;11.66;94.53;102043.38;1697720;75;24379;-82
2020/12/18 01:58:12;;;;;;;13.18;8.14;;;6.90;99.90;;;11.50;94.27;102045.52;1697677;75;24605;-83
2020/12/18 02:00:34;;;;;;;10.10;8.22;;;6.80;99.90;;;11.14;94.42;102052.36;1696671;75;24363;-82
2020/12/18 02:02:54;;;;;;;10.09;6.56;;;7.00;99.90;;;11.46;94.69;102053.67;1697471;75;25006;-82
2020/12/18 02:05:37;;;;;;;9.27;6.30;;;6.80;99.90;;;10.89;96.23;102058.59;1697579;75;24446;-81
2020/12/18 02:08:04;;;;;;;14.60;7.42;;;6.80;99.90;;;11.34;95.19;102042.03;1697555;75;24407;-80
2020/12/18 02:13:08;;;;;;;11.38;7.38;;;6.80;99.90;;;11.85;93.32;102024.73;1744905;72;25226;-81
2020/12/18 02:15:26;;;;;;;13.81;7.20;;;6.80;99.90;;;11.40;94.35;102030.05;1722583;73;24456;-82
2020/12/18 02:17:57;;;;;;;15.62;8.46;;;6.80;99.90;;;11.41;94.18;102030.94;1716961;73;24945;-80
2020/12/18 02:20:13;;;;;;;15.29;7.70;;;6.80;99.90;;;11.53;94.08;102026.02;1717982;73;24461;-81
2020/12/18 02:22:32;;;;;;;8.63;5.39;;;6.80;99.90;;;11.41;94.54;102029.19;1717234;73;24481;-81
2020/12/18 02:25:06;;;;;;;13.73;7.99;;;6.80;99.90;;;11.41;94.22;102034.41;1718554;73;24366;-81
2020/12/18 02:27:23;;;;;;;12.52;7.04;;;6.80;99.90;;;11.54;93.71;102027.81;1723861;73;24438;-79
2020/12/18 02:29:40;;;;;;;13.12;7.56;;;6.80;99.90;;;11.35;94.78;102028.17;1720262;73;24416;-81
2020/12/18 02:32:00;;;;;;;14.57;7.27;;;6.80;99.90;;;11.45;94.65;102028.86;1720027;73;24382;-80
2020/12/18 02:34:26;;;;;;;12.80;7.80;;;6.80;99.90;;;11.57;93.50;102022.22;1718242;73;24418;-81
2020/12/18 02:36:44;;;;;;;11.06;6.23;;;6.80;99.90;;;11.53;93.48;102018.20;1722268;73;24379;-80
2020/12/18 02:39:02;;;;;;;10.01;6.67;;;6.70;99.90;;;11.41;93.69;102021.36;1718757;73;24448;-79
2020/12/18 02:41:20;;;;;;;12.35;7.83;;;6.80;99.90;;;11.19;94.90;102018.18;1722582;73;24404;-81
2020/12/18 02:43:48;;;;;;;12.78;7.84;;;6.80;99.90;;;11.41;94.53;102024.42;1717015;73;24917;-81
2020/12/18 02:46:04;;;;;;;12.69;6.31;;;6.80;99.90;;;11.16;94.57;102021.56;1718326;73;24440;-81
2020/12/18 02:48:22;;;;;;;14.07;8.36;;;6.80;99.90;;;11.35;94.67;102019.05;1716047;73;24450;-82
2020/12/18 02:50:40;;;;;;;12.64;7.05;;;6.70;99.90;;;11.43;94.74;102020.13;1715647;73;24884;-81
2020/12/18 02:52:58;;;;;;;14.14;7.22;;;6.70;99.90;;;11.09;94.77;102020.96;1721985;73;24576;-82
2020/12/18 02:55:28;;;;;;;13.45;7.21;;;6.70;99.90;;;11.28;94.68;102017.11;1703923;73;24457;-82
2020/12/18 02:58:00;;;;;;;9.61;5.27;;;6.70;99.90;;;11.25;94.42;102011.41;1656142;73;24453;-80
2020/12/18 03:00:19;;;;;;;13.28;7.99;;;6.70;99.90;;;11.15;94.93;102001.56;1720655;73;24371;-81
2020/12/18 03:02:39;;;;;;;12.99;6.30;;;6.70;99.90;;;11.36;94.89;102004.75;1719901;73;24886;-81
2020/12/18 03:04:56;;;;;;;9.92;5.79;;;6.70;99.90;;;11.22;95.25;102000.01;1717173;73;24374;-81
2020/12/18 03:07:15;;;;;;;8.82;5.37;;;6.70;99.90;;;11.31;95.48;102008.95;1716361;73;24473;-79
2020/12/18 03:09:34;;;;;;;10.67;4.40;;;6.80;99.90;;;11.20;95.05;102005.59;1722337;73;24537;-79
2020/12/18 03:11:50;;;;;;;10.53;6.70;;;6.80;99.90;;;11.01;96.16;102005.53;1720873;73;24438;-78
2020/12/18 03:14:06;;;;;;;12.80;6.81;;;6.70;99.90;;;11.20;95.26;102004.29;1725844;73;24468;-80
2020/12/18 03:16:25;;;;;;;9.91;5.63;;;6.80;99.90;;;11.16;95.60;102014.19;1724655;73;24536;-80
2020/12/18 03:18:52;;;;;;;8.67;5.41;;;6.80;99.90;;;11.20;95.45;102009.50;1723882;73;24735;-78
2020/12/18 03:21:09;;;;;;;9.73;5.83;;;6.80;99.90;;;11.28;94.91;102008.88;1728110;73;24446;-81
2020/12/18 03:23:39;;;;;;;9.80;5.54;;;6.80;99.90;;;11.23;95.00;102005.67;1672142;74;24401;-81
2020/12/18 03:25:57;;;;;;;8.02;4.69;;;6.80;99.90;;;11.30;95.13;102008.91;1730135;73;25020;-81
2020/12/18 03:28:19;;;;;;;10.16;6.36;;;6.70;99.90;;;11.26;94.19;102005.75;1730387;73;24433;-80
2020/12/18 03:30:37;;;;;;;10.04;6.44;;;6.70;99.90;;;11.27;95.02;102004.92;1727966;73;24944;-81
2020/12/18 03:32:54;;;;;;;13.85;7.36;;;6.70;99.90;;;11.18;94.57;102007.27;1734008;73;24529;-82
2020/12/18 03:35:21;;;;;;;9.55;5.90;;;6.70;99.90;;;11.17;94.87;102005.11;1732380;73;24488;-81
2020/12/18 03:37:41;;;;;;;11.83;6.73;;;6.70;99.90;;;11.18;94.97;102010.77;1725357;73;24460;-82
2020/12/18 03:40:07;;;;;;;9.04;4.81;;;6.70;99.90;;;11.22;94.74;102010.44;1728092;73;24358;-81
2020/12/18 03:42:24;;;;;;;12.82;7.42;;;6.70;99.90;;;11.21;94.69;102013.86;1726090;73;24658;-82
2020/12/18 03:44:43;;;;;;;8.04;4.66;;;6.70;99.90;;;11.18;95.38;102013.37;1732429;73;24457;-82
2020/12/18 03:47:00;;;;;;;8.85;4.57;;;6.70;99.90;;;11.10;95.32;102014.00;1725818;73;24453;-81
2020/12/18 03:49:24;;;;;;;8.34;5.18;;;6.70;99.90;;;11.17;94.96;102012.03;1729908;73;24372;-80
2020/12/18 03:51:41;;;;;;;11.98;5.20;;;6.70;99.90;;;11.00;95.78;102011.56;1726423;73;24414;-82
2020/12/18 03:53:58;;;;;;;12.28;5.94;;;6.70;99.90;;;11.18;95.24;102004.66;1726204;73;24460;-81
2020/12/18 03:56:16;;;;;;;9.69;6.00;;;6.70;99.90;;;11.18;95.66;102004.66;1726128;73;24459;-80
2020/12/18 03:58:50;;;;;;;11.04;6.95;;;6.70;99.90;;;11.20;95.20;101999.08;1729155;73;24362;-81
2020/12/18 04:01:10;;;;;;;9.57;6.28;;;6.70;99.90;;;11.27;95.13;102004.92;1737829;73;24401;-79
2020/12/18 04:03:26;;;;;;;8.60;6.43;;;6.70;99.90;;;11.40;94.27;102001.77;1726447;73;24447;-80
2020/12/18 04:05:43;;;;;;;11.16;5.95;;;6.70;99.90;;;11.22;94.54;102002.20;1729963;73;24496;-82
2020/12/18 04:08:06;;;;;;;9.41;7.10;;;6.70;99.90;;;11.41;94.06;102000.50;1725486;73;24456;-80
2020/12/18 04:10:30;;;;;;;10.98;6.03;;;6.70;99.90;;;11.39;94.08;101997.41;1700231;73;24484;-80
2020/12/18 04:12:49;;;;;;;6.55;4.05;;;6.70;99.90;;;11.15;94.44;101996.35;1718389;73;24952;-81
2020/12/18 04:15:07;;;;;;;7.66;5.86;;;6.70;99.90;;;11.11;95.13;102004.05;1705918;74;24445;-80
2020/12/18 04:17:28;;;;;;;10.31;6.41;;;6.70;99.90;;;11.26;95.23;101994.91;1704241;74;24391;-82
2020/12/18 04:19:47;;;;;;;15.92;8.51;;;6.70;99.90;;;11.17;95.21;101998.59;1710690;74;24900;-81
2020/12/18 04:22:03;;;;;;;10.33;5.50;;;6.70;99.90;;;11.27;95.31;101994.05;1705525;74;24460;-80
2020/12/18 04:26:59;;;;;;;10.93;7.59;;;6.70;99.90;;;11.28;94.77;101997.55;1743073;72;25220;-81
2020/12/18 04:29:18;;;;;;;14.20;7.66;;;6.60;99.90;;;11.26;94.77;101995.32;1718580;73;24448;-80
2020/12/18 04:31:36;;;;;;;14.17;7.55;;;6.60;99.90;;;11.45;93.90;102006.69;1717976;73;24874;-82
2020/12/18 04:33:53;;;;;;;10.67;6.80;;;6.60;99.90;;;11.27;93.40;101992.75;1719537;73;24500;-78
2020/12/18 04:36:13;;;;;;;14.52;8.22;;;6.50;99.90;;;11.21;93.30;101989.99;1718103;73;25436;-80
2020/12/18 04:38:31;;;;;;;11.19;6.35;;;6.50;99.90;;;11.27;94.26;101993.20;1720856;73;24452;-81
2020/12/18 04:40:58;;;;;;;12.41;7.15;;;6.50;99.90;;;11.15;94.03;101986.33;1715987;73;24390;-82
2020/12/18 04:43:19;;;;;;;9.99;5.95;;;6.60;99.90;;;11.23;94.24;101983.10;1715548;73;24456;-81
2020/12/18 04:45:39;;;;;;;10.85;5.59;;;6.60;99.90;;;11.19;94.33;101984.29;1721839;73;24925;-79
2020/12/18 04:48:01;;;;;;;11.44;5.53;;;6.60;99.90;;;11.20;94.48;101985.63;1719502;73;24370;-82
2020/12/18 04:50:19;;;;;;;13.54;7.40;;;6.50;99.90;;;11.16;94.08;101976.39;1716635;73;24370;-80
2020/12/18 04:52:51;;;;;;;14.02;7.45;;;6.50;99.90;;;11.40;93.83;101977.89;1717368;73;24482;-82
2020/12/18 04:55:14;;;;;;;9.79;5.84;;;6.60;99.90;;;11.43;93.48;101974.49;1724415;73;24487;-81
2020/12/18 04:57:36;;;;;;;10.38;6.56;;;6.60;99.90;;;11.34;93.27;101971.63;1705261;73;24398;-82
2020/12/18 05:00:05;;;;;;;5.65;4.15;;;6.50;99.90;;;11.30;93.51;101968.50;1717439;73;24431;-80
2020/12/18 05:02:39;;;;;;;12.77;6.65;;;6.50;99.90;;;11.09;93.90;101969.23;1670974;75;24456;-81
2020/12/18 05:04:58;;;;;;;10.07;5.24;;;6.50;99.90;;;11.30;94.08;101969.80;1726689;73;24454;-79
2020/12/18 05:07:16;;;;;;;9.88;5.89;;;6.50;99.90;;;11.31;93.84;101966.34;1715089;74;24400;-81
2020/12/18 05:09:41;;;;;;;12.84;6.91;;;6.50;99.90;;;11.23;93.75;101957.44;1729559;73;24381;-80
2020/12/18 05:12:07;;;;;;;9.65;6.41;;;6.50;99.90;;;11.43;93.30;101954.94;1729922;73;24460;-79
2020/12/18 05:14:34;;;;;;;10.05;6.19;;;6.50;99.90;;;11.40;93.01;101963.55;1725646;73;24423;-80
2020/12/18 05:16:54;;;;;;;12.43;6.39;;;6.50;99.90;;;11.24;93.60;101962.69;1717045;73;24418;-81
2020/12/18 05:19:13;;;;;;;13.69;7.10;;;6.60;99.90;;;11.39;93.58;101963.51;1716441;73;24389;-81
2020/12/18 05:21:49;;;;;;;8.63;5.53;;;6.60;99.90;;;11.49;93.64;101958.98;1717901;73;24366;-81
2020/12/18 05:24:14;;;;;;;10.41;6.04;;;6.60;99.90;;;11.28;93.51;101961.94;1717551;73;24373;-80
2020/12/18 05:26:33;;;;;;;13.82;6.52;;;6.60;99.90;;;11.43;93.28;101972.74;1712642;73;24472;-81
2020/12/18 05:28:54;;;;;;;10.11;5.61;;;6.60;99.90;;;11.44;93.07;101971.92;1711931;75;24442;-82
2020/12/18 05:31:15;;;;;;;12.25;6.57;;;6.60;99.90;;;11.36;93.43;101968.23;1708158;73;24443;-81
2020/12/18 05:33:35;;;;;;;10.28;5.36;;;6.60;99.90;;;11.45;93.33;101976.28;1669575;75;24923;-82
2020/12/18 05:35:59;;;;;;;5.42;3.84;;;6.60;99.90;;;11.49;93.20;101973.34;1706193;73;24398;-81
2020/12/18 05:38:19;;;;;;;10.05;6.01;;;6.60;99.90;;;11.28;93.60;101974.98;1708942;73;24447;-81
2020/12/18 05:40:50;;;;;;;10.25;4.90;;;6.60;99.90;;;11.54;93.13;101961.30;1701344;75;24427;-81
2020/12/18 05:43:14;;;;;;;9.99;5.64;;;6.60;99.90;;;11.51;93.28;101961.19;1697598;73;24481;-80
2020/12/18 05:45:33;;;;;;;7.70;4.75;;;6.60;99.90;;;11.52;93.16;101962.53;1702137;75;24507;-81
2020/12/18 05:48:07;;;;;;;8.56;4.86;;;6.60;99.90;;;11.38;93.70;101963.06;1706019;75;24480;-82
2020/12/18 05:50:37;;;;;;;9.19;4.75;;;6.60;99.90;;;11.33;94.50;101968.16;1711118;73;24890;-82
2020/12/18 05:53:03;;;;;;;6.41;3.65;;;6.70;99.90;;;11.42;94.62;101959.25;1702247;73;25004;-82
2020/12/18 05:55:31;;;;;;;6.08;3.20;;;6.70;99.90;;;11.41;94.42;101953.56;1705130;73;24853;-81
2020/12/18 05:57:50;;;;;;;8.81;4.24;;;6.80;99.90;;;11.45;94.98;101947.59;1704364;73;24392;-80
2020/12/18 06:00:09;;;;;;;10.45;5.06;;;6.80;99.90;;;11.62;94.38;101953.20;1700040;73;24559;-81
2020/12/18 06:02:48;;;;;;;7.77;4.70;;;6.80;99.90;;;11.59;93.95;101950.52;1708778;73;24828;-81
2020/12/18 06:05:07;;;;;;;8.31;5.56;;;6.80;99.90;;;11.61;94.44;101947.53;1702864;73;24367;-81
2020/12/18 06:07:37;;;;;;;12.99;4.89;;;6.80;99.90;;;11.85;93.91;101946.84;1704582;73;24452;-82
2020/12/18 06:09:58;;;;;;;7.68;4.12;;;6.90;99.90;;;11.74;93.93;101943.11;1696654;75;24451;-82
2020/12/18 06:12:16;;;;;;;10.56;4.97;;;6.90;99.90;;;11.54;94.42;101943.89;1701310;75;24446;-80
2020/12/18 06:14:34;;;;;;;8.75;3.72;;;6.90;99.90;;;11.79;94.30;101938.87;1704269;74;24482;-81
2020/12/18 06:16:55;;;;;;;8.11;5.06;;;6.90;99.90;;;11.63;94.93;101939.36;1704320;75;24777;-82
2020/12/18 06:19:19;;;;;;;8.03;4.17;;;7.00;99.90;;;11.74;94.73;101932.67;1698474;75;24894;-83
2020/12/18 06:21:37;;;;;;;10.57;5.01;;;7.00;99.90;;;11.70;94.75;101925.59;1703840;73;24457;-81
2020/12/18 06:23:54;;;;;;;6.12;3.53;;;7.00;99.90;;;11.87;94.48;101930.80;1699674;73;24577;-82
2020/12/18 06:26:13;;;;;;;7.19;3.75;;;7.00;99.90;;;11.70;95.48;101936.03;1700194;73;24418;-81
2020/12/18 06:28:31;;;;;;;6.67;3.79;;;7.10;99.90;;;11.79;94.94;101930.61;1696319;73;24485;-82
2020/12/18 06:31:16;;;;;;;5.35;3.20;;;7.10;99.90;;;11.93;95.09;101936.16;1691951;73;24863;-82
2020/12/18 06:33:55;;;;;;;8.11;4.21;;;7.10;99.90;;;11.76;94.83;101926.62;1695387;74;24514;-83
2020/12/18 06:36:58;;;;;;;6.58;3.39;;;7.10;99.90;;;12.02;94.65;101925.50;1706954;74;24376;-82
2020/12/18 06:39:33;;;;;;;9.01;5.19;;;7.20;99.90;;;11.91;94.86;101915.24;1709707;73;24802;-82
2020/12/18 06:42:14;;;;;;;7.70;4.08;;;7.20;99.90;;;12.11;94.16;101915.66;1700692;73;24430;-83
2020/12/18 06:44:42;;;;;;;7.38;4.07;;;7.20;99.90;;;12.03;94.32;101915.91;1685143;73;24379;-83
2020/12/18 06:47:17;;;;;;;7.33;4.00;;;7.20;99.90;;;12.13;94.88;101920.49;1688799;73;24941;-80
2020/12/18 06:50:11;;;;;;;8.30;3.41;;;7.20;99.90;;;12.14;93.87;101928.77;1704582;74;24423;-79
2020/12/18 06:52:57;;;;;;;7.54;3.92;;;7.20;99.90;;;11.94;94.53;101923.14;1706498;73;24433;-80
2020/12/18 06:55:19;;;;;;;9.94;3.68;;;7.30;99.90;;;12.05;94.83;101922.95;1697564;75;24934;-79
2020/12/18 06:57:43;;;;;;;7.19;3.26;;;7.30;99.90;;;12.05;93.82;101909.00;1691045;74;24465;-85
2020/12/18 07:00:32;;;;;;;7.01;3.62;;;7.30;99.90;;;12.14;94.07;101924.85;1697141;73;24434;-83
2020/12/18 07:02:52;;;;;;;8.08;4.62;;;7.30;99.90;;;12.13;93.66;101929.63;1708336;75;24430;-80
2020/12/18 07:05:36;;;;;;;6.16;3.66;;;7.30;99.90;;;12.12;94.38;101923.97;1697401;75;24446;-81
2020/12/18 07:07:54;;;;;;;7.35;3.97;;;7.40;99.90;;;12.05;94.75;101918.14;1703207;75;24433;-81
2020/12/18 07:10:17;;;;;;;7.41;4.15;;;7.40;99.90;;;12.20;93.70;101911.95;1702092;75;24965;-83
2020/12/18 07:12:36;;;;;;;5.69;3.44;;;7.40;99.90;;;12.10;93.92;101916.10;1705085;75;24915;-81
2020/12/18 07:14:56;;;;;;;6.22;3.73;;;7.40;99.90;;;12.04;94.58;101909.86;1706389;75;24546;-81
2020/12/18 07:17:17;;;;;;;6.80;2.97;;;7.40;99.90;;;12.28;94.06;101905.58;1707336;73;24500;-81
2020/12/18 07:19:35;;;;;;;8.42;3.68;;;7.50;99.90;;;12.14;94.58;101906.58;1698584;73;24485;-80
2020/12/18 07:22:01;;;;;;;4.26;3.16;;;7.50;99.90;;;12.12;94.78;101905.69;1708872;75;24399;-80
2020/12/18 07:24:18;;;;;;;7.50;3.36;;;7.60;99.90;;;12.19;95.08;101902.34;1710059;75;24449;-82
2020/12/18 07:26:37;;;;;;;6.91;3.35;;;7.60;99.90;;;12.32;94.32;101900.86;1710806;73;24887;-81
2020/12/18 07:28:56;;;;;;;7.62;3.80;;;7.60;99.90;;;12.12;95.04;101903.94;1710731;73;24426;-81
2020/12/18 07:31:23;;;;;;;7.86;3.81;;;7.60;99.90;;;12.30;94.76;101893.44;1708977;74;24516;-80
2020/12/18 07:33:41;;;;;;;3.97;2.80;;;7.60;99.90;;;12.26;94.39;101901.63;1708257;74;24447;-79
2020/12/18 07:36:01;;;;;;;8.45;3.39;;;7.70;99.90;;;12.25;94.70;101895.07;1705711;74;24562;-81
2020/12/18 07:38:22;;;;;;;4.12;2.82;;;7.70;99.90;;;12.30;94.91;101900.83;1700394;74;24490;-81
2020/12/18 07:40:41;;;;;;;5.91;2.77;;;7.70;99.90;;;12.23;95.03;101889.82;1714569;74;24496;-81
2020/12/18 07:43:00;;;;;;;6.82;4.15;;;7.70;99.90;;;12.18;95.46;101896.26;1703277;74;24433;-80
2020/12/18 07:45:18;;;;;;;7.72;4.29;;;7.80;99.90;;;12.49;94.52;101901.65;1711525;74;24464;-82
2020/12/18 07:47:39;;;;;;;5.91;3.43;;;7.80;99.90;;;12.44;93.90;101911.13;1709484;74;24623;-82
2020/12/18 07:49:58;;;;;;;4.82;2.92;;;7.70;99.90;;;12.30;94.33;101900.83;1701532;74;24909;-82
2020/12/18 07:52:25;;;;;;;7.39;2.85;;;7.80;99.90;;;12.30;94.43;101894.75;1697063;74;24916;-83
2020/12/18 07:54:43;;;;;;;6.97;3.32;;;7.70;99.90;;;12.14;94.39;101900.94;1660356;75;24501;-82
2020/12/18 07:57:08;;;;;;;8.94;3.16;;;7.70;99.90;;;12.40;93.31;101898.87;1699614;74;24642;-81
2020/12/18 07:59:32;;;;;;;6.49;3.84;;;7.70;99.90;;;12.17;94.17;101908.84;1709773;74;24612;-83
2020/12/18 08:01:54;;;;;;;7.13;3.91;;;7.70;99.90;;;12.44;93.29;101914.19;1709868;74;24512;-83
2020/12/18 08:04:13;;;;;;;7.69;3.28;;;7.70;99.90;;;12.23;92.86;101917.66;1702156;74;24466;-82
2020/12/18 08:06:54;;;;;;;7.86;3.83;;;7.60;99.90;;;12.07;93.70;101925.17;1717447;74;24434;-81
2020/12/18 08:09:19;;;;;;;7.24;3.76;;;7.60;99.90;;;12.29;92.87;101927.80;1703573;74;24503;-84
2020/12/18 08:11:42;;;;;;;7.25;4.54;;;7.50;99.90;;;12.24;93.05;101930.73;1700678;74;24492;-82
2020/12/18 08:13:59;;;;;;;9.10;3.82;;;7.50;99.90;;;12.17;92.96;101936.70;1698533;74;24880;-81
2020/12/18 08:16:18;;;;;;;8.40;3.82;;;7.50;99.90;;;12.09;92.74;101939.56;1703231;74;24514;-83
2020/12/18 08:18:45;;;;;;;7.73;3.64;;;7.50;99.90;;;12.12;92.71;101943.55;1716522;74;24467;-84
2020/12/18 08:21:03;;;;;;;6.02;3.12;;;7.50;99.90;;;12.08;93.32;101945.20;1694187;74;25017;-82
2020/12/18 08:23:22;;;;;;;6.97;3.44;;;7.50;99.90;;;12.13;93.80;101940.97;1707292;74;24445;-81
2020/12/18 08:25:40;;;;;;;6.09;3.34;;;7.60;99.90;;;12.07;94.61;101950.39;1702141;74;24577;-83
2020/12/18 08:28:00;;;;;;;8.30;4.63;;;7.60;99.90;;;12.31;94.67;101957.88;1706878;74;24532;-83
2020/12/18 08:30:20;;;;;;;6.61;3.95;;;7.70;99.90;;;12.52;93.56;101966.16;1706720;74;24475;-84
2020/12/18 08:32:41;;;;;;;3.99;2.58;;;7.80;99.90;;;12.47;94.03;101971.27;1708565;73;24478;-84
2020/12/18 08:35:10;;;;;;;7.44;3.83;;;7.80;99.90;;;12.32;94.80;101966.15;1698409;74;24479;-83
2020/12/18 08:37:39;;;;;;;7.30;3.62;;;7.80;99.90;;;12.54;93.75;101976.20;1706626;74;24416;-84
2020/12/18 08:39:57;;;;;;;7.03;4.46;;;7.80;99.90;;;12.47;93.73;101969.09;1702135;74;24477;-83
2020/12/18 08:42:18;;;;;;;7.17;4.27;;;7.90;99.90;;;12.76;92.87;101980.59;1699707;74;24891;-82
2020/12/18 08:44:46;;;;;;;7.63;4.34;;;8.00;99.90;;;12.87;92.65;101982.98;1713832;74;24832;-82
2020/12/18 08:47:18;;;;;;;9.04;4.14;;;8.00;99.90;;;12.99;91.61;101998.03;1704083;74;24471;-83
2020/12/18 08:49:37;;;;;;;7.43;3.90;;;8.00;99.90;;;12.87;92.34;101997.77;1711338;74;24520;-83
2020/12/18 08:51:58;;;;;;;9.69;4.31;;;8.10;99.90;;;12.97;91.13;101988.86;1714119;74;24956;-85
2020/12/18 08:54:34;;;;;;;7.10;4.33;;;8.10;99.90;;;13.04;91.98;101988.14;1704684;74;24458;-84
2020/12/18 08:57:09;;;;;;;7.10;4.24;;;8.20;99.90;;;13.11;91.58;101992.64;1706309;74;24438;-81
2020/12/18 08:59:26;;;;;;;6.34;3.40;;;8.30;99.90;;;13.26;91.69;101990.73;1705013;74;24880;-83
2020/12/18 09:01:49;;;;;;;5.79;4.00;;;8.30;99.90;;;13.00;92.54;101991.56;1708391;74;24484;-81
2020/12/18 09:04:15;;;;;;;7.24;3.93;;;8.40;99.90;;;13.23;92.90;101990.23;1703129;74;24508;-83
2020/12/18 09:06:33;;;;;;;7.10;4.25;;;8.40;99.90;;;13.08;92.47;102000.84;1713585;74;24494;-81
2020/12/18 09:08:52;;;;;;;5.88;4.00;;;8.50;99.90;;;13.35;93.00;101997.02;1692103;74;24509;-83
2020/12/18 09:11:09;;;;;;;9.91;4.44;;;8.50;99.90;;;13.52;91.05;101992.95;1707326;74;25099;-78
2020/12/18 09:13:29;;;;;;;8.03;4.78;;;8.50;99.90;;;13.48;90.41;101990.25;1715277;74;24465;-83
2020/12/18 09:15:47;;;;;;;8.01;4.41;;;8.60;99.90;;;13.45;91.10;102003.29;1699823;74;24480;-82
2020/12/18 09:18:07;;;;;;;6.56;4.39;;;8.70;99.90;;;13.54;89.70;101987.31;1703102;74;24503;-80
2020/12/18 09:20:31;;;;;;;7.99;4.42;;;8.70;99.90;;;13.35;90.99;102000.94;1715883;74;25400;-83
2020/12/18 09:23:02;;;;;;;6.22;4.12;;;8.70;99.90;;;13.56;90.48;101986.89;1702631;74;24688;-80
2020/12/18 09:25:22;;;;;;;7.25;3.93;;;8.80;99.90;;;13.62;90.31;101991.36;1703895;74;25164;-79
2020/12/18 09:27:38;;;;;;;7.83;4.26;;;8.80;99.90;;;13.66;89.99;101992.73;1707876;75;24691;-81
2020/12/18 09:30:06;;;;;;;6.97;3.69;;;8.80;99.90;;;13.61;90.74;101987.86;1675243;75;24490;-79
2020/12/18 09:32:22;;;;;;;7.19;4.10;;;8.90;99.90;;;13.62;90.86;101985.67;1706886;74;24419;-77
2020/12/18 09:34:38;;;;;;;7.49;4.16;;;8.90;99.90;;;13.59;90.59;101988.70;1706952;74;24616;-79
2020/12/18 09:36:55;;;;;;;6.85;3.90;;;8.90;99.90;;;13.99;89.83;101986.28;1715090;74;24610;-79
2020/12/18 09:39:12;;;;;;;5.63;3.49;;;9.00;99.90;;;13.90;89.44;101995.28;1706768;74;24497;-80
2020/12/18 09:41:30;;;;;;;7.50;4.30;;;9.10;99.90;;;13.81;89.52;101984.67;1710153;74;24568;-80
2020/12/18 09:43:46;;;;;;;10.03;4.61;;;9.20;99.90;;;14.00;89.38;101980.17;1715010;74;24546;-80
2020/12/18 09:46:06;;;;;;;7.15;4.19;;;9.30;99.90;;;14.11;89.19;101985.13;1704451;74;24468;-79
2020/12/18 09:48:22;;;;;;;8.64;3.93;;;9.30;99.90;;;13.86;89.46;101977.77;1707592;74;24944;-80
2020/12/18 09:50:44;;;;;;;5.38;3.23;;;9.40;99.90;;;13.85;90.59;101985.19;1711546;74;24912;-83
2020/12/18 09:53:01;;;;;;;6.40;4.00;;;9.60;99.90;;;13.79;91.72;101978.52;1710465;74;24935;-79
2020/12/18 09:55:21;;;;;;;6.99;3.63;;;10.00;99.90;;;14.08;90.98;101979.85;1713555;74;24496;-81
2020/12/18 09:57:38;;;;;;;7.60;4.72;;;10.50;99.90;;;14.08;92.05;101972.88;1706982;74;24428;-80